Time;durP1;ratioP1;P1;durP2;ratioP2;P2;SDS_P1;SDS_P2;PMS_P1;PMS_P2;Temp;Humidity;BMP_temperature;BMP_pressure;BME280_temperature;BME280_humidity;BME280_pressure;Samples;Min_cycle;Max_cycle;Signal;HPM_P1;HPM_P2
2022/12/07 00:01:34;;;;;;;15.85;1.42;;;2.20;99.90;;;;;;5076981;28;20036;-65
2022/12/07 00:04:05;;;;;;;7.53;0.60;;;2.20;99.90;;;;;;5074083;28;20075;-64
2022/12/07 00:06:32;;;;;;;7.72;0.93;;;4.10;99.90;;;;;;5106799;27;20052;-64
2022/12/07 00:08:58;;;;;;;7.88;0.68;;;2.80;99.90;;;;;;5075478;28;20127;-65
2022/12/07 00:11:24;;;;;;;9.82;0.40;;;3.40;99.90;;;;;;5056472;28;20038;-66
2022/12/07 00:13:59;;;;;;;8.60;0.60;;;2.90;99.90;;;;;;5076979;28;20036;-65
2022/12/07 00:16:27;;;;;;;12.18;0.60;;;3.10;99.90;;;;;;5059267;28;20035;-65
2022/12/07 00:18:53;;;;;;;15.70;0.50;;;3.50;99.90;;;;;;5072341;28;20040;-65
2022/12/07 00:21:21;;;;;;;8.80;0.43;;;3.40;99.90;;;;;;5076669;28;20482;-66
2022/12/07 00:23:49;;;;;;;8.95;0.40;;;4.80;99.90;;;;;;5105498;27;20043;-65
2022/12/07 00:26:18;;;;;;;4.50;0.32;;;3.90;99.90;;;;;;5070661;28;20035;-65
2022/12/07 00:28:55;;;;;;;8.15;0.40;;;3.70;99.90;;;;;;5090272;28;20043;-65
2022/12/07 00:31:24;;;;;;;8.57;0.35;;;4.90;99.90;;;;;;5063880;28;20056;-65
2022/12/07 00:33:51;;;;;;;7.25;0.47;;;3.70;99.90;;;;;;5104383;27;20066;-66
2022/12/07 00:36:19;;;;;;;7.95;0.40;;;4.50;99.90;;;;;;5076274;28;20122;-65
2022/12/07 00:38:45;;;;;;;11.13;0.75;;;3.30;99.90;;;;;;5104762;27;20040;-65
2022/12/07 00:41:16;;;;;;;8.38;0.40;;;4.10;99.90;;;;;;5071925;28;20265;-65
2022/12/07 00:43:44;;;;;;;7.53;0.35;;;4.60;99.90;;;;;;5075051;28;20052;-65
2022/12/07 00:46:11;;;;;;;10.10;0.32;;;3.30;99.90;;;;;;5075076;28;20032;-65
2022/12/07 00:48:37;;;;;;;9.75;0.57;;;4.60;99.90;;;;;;5106742;28;20040;-65
2022/12/07 00:51:04;;;;;;;10.45;0.50;;;4.70;99.90;;;;;;5103695;28;20062;-65
2022/12/07 00:53:30;;;;;;;9.98;0.82;;;4.60;99.90;;;;;;5059037;28;20450;-66
2022/12/07 00:55:56;;;;;;;13.07;0.82;;;4.00;99.90;;;;;;5106724;28;20082;-65
2022/12/07 00:58:23;;;;;;;12.02;0.88;;;3.90;99.90;;;;;;5070507;28;20130;-65
2022/12/07 01:00:49;;;;;;;8.77;0.55;;;3.00;99.90;;;;;;5057091;28;20044;-65
2022/12/07 01:03:16;;;;;;;11.63;0.50;;;3.50;99.90;;;;;;5075320;28;20044;-65
2022/12/07 01:05:50;;;;;;;14.63;1.02;;;3.20;99.90;;;;;;5072652;28;20505;-66
2022/12/07 01:08:16;;;;;;;9.73;1.15;;;4.70;99.90;;;;;;5106473;28;20032;-64
2022/12/07 01:10:42;;;;;;;14.98;0.70;;;3.30;99.90;;;;;;5058304;28;20516;-64
2022/12/07 01:13:07;;;;;;;12.48;0.80;;;3.90;99.90;;;;;;5085035;28;20044;-65
2022/12/07 01:15:33;;;;;;;14.38;0.80;;;3.60;99.90;;;;;;5058709;28;20046;-64
2022/12/07 01:17:59;;;;;;;14.25;0.60;;;4.20;99.90;;;;;;5074441;28;20494;-65
2022/12/07 01:20:24;;;;;;;15.68;0.98;;;3.60;99.90;;;;;;5103923;28;20032;-64
2022/12/07 01:22:50;;;;;;;13.68;0.63;;;4.00;99.90;;;;;;5071518;28;20066;-65
2022/12/07 01:25:16;;;;;;;11.25;1.00;;;4.90;99.90;;;;;;5088575;28;20048;-65
2022/12/07 01:27:42;;;;;;;15.73;1.00;;;5.10;99.90;;;;;;5058282;28;20043;-64
2022/12/07 01:30:10;;;;;;;13.02;0.95;;;4.90;99.90;;;;;;5072309;28;20071;-65
2022/12/07 01:32:36;;;;;;;10.38;0.60;;;4.90;99.90;;;;;;5074200;28;20113;-66
2022/12/07 01:35:01;;;;;;;12.63;1.13;;;4.60;99.90;;;;;;5080222;28;20082;-63
2022/12/07 01:37:27;;;;;;;9.30;0.60;;;4.90;99.90;;;;;;5076296;28;20337;-64
2022/12/07 01:39:53;;;;;;;11.60;0.60;;;4.70;99.90;;;;;;5077930;28;20048;-63
2022/12/07 01:42:19;;;;;;;6.40;0.40;;;4.10;99.90;;;;;;5061439;28;20083;-63
2022/12/07 01:45:13;;;;;;;7.53;0.70;;;4.40;99.90;;;;;;5057985;28;20134;-64
2022/12/07 01:47:39;;;;;;;9.57;0.80;;;4.70;99.90;;;;;;5078175;28;20044;-63
2022/12/07 01:50:05;;;;;;;6.85;0.45;;;4.40;99.90;;;;;;5078670;28;20070;-64
2022/12/07 01:52:34;;;;;;;5.18;0.50;;;3.90;99.90;;;;;;5079958;28;20041;-64
2022/12/07 01:55:07;;;;;;;9.05;0.40;;;3.90;99.90;;;;;;5113832;27;20114;-62
2022/12/07 01:57:36;;;;;;;4.63;0.47;;;3.80;99.90;;;;;;5082092;28;20048;-63
2022/12/07 02:00:04;;;;;;;8.23;0.70;;;4.50;99.90;;;;;;5054168;28;20051;-63
2022/12/07 02:02:37;;;;;;;12.48;0.65;;;4.30;99.90;;;;;;5068780;28;20040;-63
2022/12/07 02:05:05;;;;;;;15.15;0.93;;;4.40;99.90;;;;;;5085976;28;20610;-64
2022/12/07 02:07:32;;;;;;;14.50;1.08;;;4.60;99.90;;;;;;5067971;28;20398;-64
2022/12/07 02:10:12;;;;;;;8.55;0.50;;;4.30;99.90;;;;;;5084547;28;20051;-63
2022/12/07 02:12:38;;;;;;;10.68;1.02;;;3.60;99.90;;;;;;5065111;28;20111;-63
2022/12/07 02:15:04;;;;;;;16.77;0.80;;;3.90;99.90;;;;;;5083351;28;20126;-64
2022/12/07 02:17:42;;;;;;;11.63;0.60;;;4.90;99.90;;;;;;5081265;28;20507;-63
2022/12/07 02:20:40;;;;;;;13.52;0.93;;;4.60;99.90;;;;;;5085345;28;20569;-63
2022/12/07 02:23:30;;;;;;;12.70;0.70;;;4.70;99.90;;;;;;5071829;28;20070;-64
2022/12/07 02:26:28;;;;;;;15.93;0.85;;;4.60;99.90;;;;;;5081509;28;20040;-63
2022/12/07 02:29:18;;;;;;;9.68;0.70;;;4.50;99.90;;;;;;5056607;28;20064;-64
2022/12/07 02:31:51;;;;;;;13.70;0.68;;;3.00;99.90;;;;;;5079111;28;20052;-64
2022/12/07 02:34:48;;;;;;;11.38;0.60;;;2.60;99.90;;;;;;5083667;28;20039;-63
2022/12/07 02:37:28;;;;;;;17.73;0.88;;;3.70;99.90;;;;;;5047391;28;20094;-64
2022/12/07 02:40:18;;;;;;;14.75;0.70;;;4.00;99.90;;;;;;5068574;28;20171;-66
2022/12/07 02:42:50;;;;;;;15.07;1.30;;;4.30;99.90;;;;;;5101048;27;20048;-64
2022/12/07 02:45:19;;;;;;;13.63;0.85;;;3.50;99.90;;;;;;5082664;28;20044;-64
2022/12/07 02:47:49;;;;;;;15.95;0.75;;;3.70;99.90;;;;;;5112508;27;20449;-64
2022/12/07 02:50:19;;;;;;;17.05;0.85;;;2.70;99.90;;;;;;5086853;28;20115;-63
2022/12/07 02:52:45;;;;;;;17.02;1.08;;;2.50;99.90;;;;;;5068962;28;20040;-65
2022/12/07 02:55:12;;;;;;;17.30;0.80;;;4.70;99.90;;;;;;5066846;28;20054;-63
2022/12/07 02:58:01;;;;;;;18.77;0.73;;;3.00;99.90;;;;;;5085378;28;20040;-64
2022/12/07 03:00:27;;;;;;;8.50;0.70;;;4.90;99.90;;;;;;5059737;28;20094;-63
2022/12/07 03:03:06;;;;;;;7.82;0.57;;;4.80;99.90;;;;;;5066241;28;20469;-64
2022/12/07 03:05:43;;;;;;;5.30;0.30;;;4.50;99.90;;;;;;5083784;28;20399;-64
2022/12/07 03:08:36;;;;;;;4.90;0.30;;;3.20;99.90;;;;;;5084893;28;20044;-65
2022/12/07 03:11:10;;;;;;;3.22;0.20;;;3.20;99.90;;;;;;5073785;28;20068;-64
2022/12/07 03:13:35;;;;;;;;;;;3.40;99.90;;;;;;5084663;28;20067;-64
2022/12/07 03:16:16;;;;;;;11.82;0.43;;;3.40;99.90;;;;;;5064431;28;20008;-64
2022/12/07 03:19:02;;;;;;;10.82;0.30;;;4.00;99.90;;;;;;5082685;28;20044;-66
2022/12/07 03:21:33;;;;;;;9.40;0.40;;;4.20;99.90;;;;;;5079609;28;20115;-64
2022/12/07 03:24:04;;;;;;;10.43;0.80;;;3.00;99.90;;;;;;5084209;28;20039;-63
2022/12/07 03:26:35;;;;;;;7.90;0.40;;;3.00;99.90;;;;;;5083395;28;20044;-63
2022/12/07 03:29:06;;;;;;;8.90;0.40;;;4.30;99.90;;;;;;5083176;28;20040;-64
2022/12/07 03:31:36;;;;;;;10.13;0.52;;;2.80;99.90;;;;;;5080969;28;20076;-64
2022/12/07 03:34:16;;;;;;;10.10;0.30;;;2.90;99.90;;;;;;5062499;28;21029;-65
2022/12/07 03:36:48;;;;;;;8.80;0.40;;;4.00;99.90;;;;;;5110224;27;20046;-63
2022/12/07 03:39:27;;;;;;;10.98;0.30;;;4.10;99.90;;;;;;5080734;28;20048;-64
2022/12/07 03:41:54;;;;;;;8.48;0.30;;;2.60;99.90;;;;;;5064112;28;20267;-64
2022/12/07 03:44:21;;;;;;;12.65;0.90;;;2.60;99.90;;;;;;5081215;28;20048;-63
2022/12/07 03:47:01;;;;;;;8.27;0.43;;;4.00;99.90;;;;;;5082938;28;20036;-64
2022/12/07 03:49:33;;;;;;;12.50;0.47;;;2.70;99.90;;;;;;5079875;28;20131;-64
2022/12/07 03:52:40;;;;;;;14.25;0.50;;;3.60;99.90;;;;;;5061084;28;20518;-63
2022/12/07 03:55:32;;;;;;;13.98;1.25;;;3.00;99.90;;;;;;5073920;28;20502;-64
2022/12/07 03:58:07;;;;;;;12.52;0.88;;;3.00;99.90;;;;;;5081436;28;20044;-64
2022/12/07 04:00:33;;;;;;;16.15;0.82;;;3.10;99.90;;;;;;5082728;28;20149;-64
2022/12/07 04:02:59;;;;;;;10.20;0.35;;;4.50;99.90;;;;;;5062614;28;20602;-64
2022/12/07 04:05:25;;;;;;;10.18;0.70;;;4.60;99.90;;;;;;5080043;28;20040;-64
2022/12/07 04:07:50;;;;;;;10.57;0.70;;;4.50;99.90;;;;;;5079513;28;20386;-64
2022/12/07 04:10:16;;;;;;;10.60;0.60;;;4.30;99.90;;;;;;5061765;28;20040;-64
2022/12/07 04:12:42;;;;;;;8.95;0.80;;;3.80;99.90;;;;;;5092705;28;20546;-63
2022/12/07 04:15:09;;;;;;;4.40;0.40;;;4.00;99.90;;;;;;5081763;28;20173;-65
2022/12/07 04:17:34;;;;;;;8.43;0.70;;;3.80;99.90;;;;;;5080950;28;20394;-64
2022/12/07 04:20:00;;;;;;;8.80;0.40;;;3.50;99.90;;;;;;5062869;28;20047;-64
2022/12/07 04:22:26;;;;;;;9.75;0.60;;;4.30;99.90;;;;;;5061350;28;20305;-64
2022/12/07 04:24:52;;;;;;;11.45;0.80;;;3.80;99.90;;;;;;5080296;28;20043;-64
2022/12/07 04:27:17;;;;;;;11.55;0.60;;;3.90;99.90;;;;;;5078290;28;20040;-64
2022/12/07 04:29:43;;;;;;;13.43;0.80;;;3.80;99.90;;;;;;5078152;28;20147;-64
2022/12/07 04:32:09;;;;;;;14.48;0.73;;;4.60;99.90;;;;;;5078933;28;20043;-64
2022/12/07 04:34:34;;;;;;;18.73;1.85;;;3.40;99.90;;;;;;5077514;28;20108;-67
2022/12/07 04:37:00;;;;;;;14.70;0.88;;;3.60;99.90;;;;;;5078458;28;20085;-64
2022/12/07 04:39:28;;;;;;;13.40;0.60;;;3.80;99.90;;;;;;5060111;28;20410;-65
2022/12/07 04:41:55;;;;;;;18.70;0.88;;;3.80;99.90;;;;;;5108230;28;20484;-65
2022/12/07 04:44:22;;;;;;;13.13;0.90;;;4.30;99.90;;;;;;5078734;28;20524;-64
2022/12/07 04:46:48;;;;;;;12.05;0.45;;;4.40;99.90;;;;;;5079455;28;20083;-65
2022/12/07 04:49:14;;;;;;;13.50;1.35;;;4.80;99.90;;;;;;5079377;28;20544;-64
2022/12/07 04:51:41;;;;;;;7.05;0.43;;;4.10;99.90;;;;;;5078276;28;20151;-65
2022/12/07 04:54:06;;;;;;;6.55;0.35;;;4.00;99.90;;;;;;5061479;28;20036;-64
2022/12/07 04:56:32;;;;;;;6.13;0.28;;;4.20;99.90;;;;;;5076279;28;20040;-66
2022/12/07 04:58:58;;;;;;;4.25;0.20;;;4.30;99.90;;;;;;5087465;28;20058;-65
2022/12/07 05:01:24;;;;;;;7.30;0.43;;;3.90;99.90;;;;;;5058636;28;20052;-65
2022/12/07 05:03:50;;;;;;;6.97;0.20;;;4.20;99.90;;;;;;5076963;28;20386;-65
2022/12/07 05:06:17;;;;;;;5.53;0.40;;;4.30;99.90;;;;;;5058245;28;20088;-65
2022/12/07 05:08:43;;;;;;;6.00;0.20;;;4.00;99.90;;;;;;5105500;28;20123;-66
2022/12/07 05:11:37;;;;;;;3.25;0.10;;;3.80;99.90;;;;;;5072264;28;20048;-65
2022/12/07 05:13:55;;;;;;;4.60;0.20;;;3.20;99.90;;;;;;5073045;28;20517;-65
2022/12/07 05:16:21;;;;;;;5.85;0.20;;;3.00;99.90;;;;;;5074315;28;20032;-65
2022/12/07 05:18:47;;;;;;;3.65;0.20;;;3.00;99.90;;;;;;5075539;28;20556;-64
2022/12/07 05:21:12;;;;;;;3.90;0.50;;;3.10;99.90;;;;;;5056000;28;20478;-64
2022/12/07 05:23:38;;;;;;;3.13;0.38;;;3.80;99.90;;;;;;5089724;28;20085;-64
2022/12/07 05:26:04;;;;;;;7.85;0.82;;;3.80;99.90;;;;;;5087735;28;20102;-64
2022/12/07 05:28:29;;;;;;;4.63;0.30;;;3.00;99.90;;;;;;5077783;28;20067;-64
2022/12/07 05:30:55;;;;;;;9.02;0.55;;;3.60;99.90;;;;;;5078312;28;20060;-64
2022/12/07 05:33:21;;;;;;;8.82;0.30;;;2.80;99.90;;;;;;5045987;28;20111;-64
2022/12/07 05:35:46;;;;;;;7.95;0.30;;;2.60;99.90;;;;;;5061564;28;21518;-64
2022/12/07 05:38:12;;;;;;;6.60;0.40;;;3.50;99.90;;;;;;5059675;28;20051;-64
2022/12/07 05:40:37;;;;;;;11.38;0.30;;;3.40;99.90;;;;;;5074730;28;20498;-64
2022/12/07 05:43:06;;;;;;;8.15;0.50;;;2.70;99.90;;;;;;5078006;28;20040;-64
2022/12/07 05:45:32;;;;;;;7.47;0.40;;;2.90;99.90;;;;;;5075970;28;20036;-64
2022/12/07 05:47:57;;;;;;;6.45;0.73;;;2.90;99.90;;;;;;5062540;28;20075;-64
2022/12/07 05:50:23;;;;;;;6.80;0.25;;;3.00;99.90;;;;;;5078571;28;20036;-64
2022/12/07 05:52:49;;;;;;;6.75;0.30;;;3.80;99.90;;;;;;5076031;28;20075;-65
2022/12/07 05:55:14;;;;;;;8.07;0.57;;;3.40;99.90;;;;;;5078913;28;20154;-63
2022/12/07 05:59:22;;;;;;;8.23;0.40;;;2.90;99.90;;;;;;5108216;27;20054;-63
2022/12/07 06:00:26;;;;;;;9.15;0.40;;;3.40;99.90;;;;;;5076996;28;20051;-64
2022/12/07 06:02:51;;;;;;;16.52;0.55;;;3.70;99.90;;;;;;5060490;28;20043;-64
2022/12/07 06:05:17;;;;;;;12.48;0.40;;;2.80;99.90;;;;;;5078353;28;20048;-64
2022/12/07 06:07:43;;;;;;;12.15;0.73;;;2.80;99.90;;;;;;5043055;28;20541;-64
2022/12/07 06:10:09;;;;;;;11.70;0.45;;;2.40;99.90;;;;;;5060880;28;20089;-64
2022/12/07 06:12:35;;;;;;;14.05;1.20;;;2.50;99.90;;;;;;5044607;28;20220;-64
2022/12/07 06:15:00;;;;;;;17.50;0.68;;;2.40;99.90;;;;;;5057902;28;20509;-64
2022/12/07 06:17:26;;;;;;;21.08;0.90;;;3.50;99.90;;;;;;5076472;28;20481;-64
2022/12/07 06:19:52;;;;;;;15.05;0.77;;;3.90;99.90;;;;;;5079748;28;20071;-64
2022/12/07 06:22:18;;;;;;;17.13;0.98;;;3.80;99.90;;;;;;5061785;28;20139;-65
2022/12/07 06:24:44;;;;;;;14.25;1.17;;;4.10;99.90;;;;;;5075724;28;20595;-65
2022/12/07 06:27:10;;;;;;;10.93;1.13;;;4.10;99.90;;;;;;5077618;28;20677;-65
2022/12/07 06:29:36;;;;;;;16.67;0.85;;;3.70;99.90;;;;;;5074844;28;20110;-65
2022/12/07 06:32:03;;;;;;;14.18;1.15;;;2.70;99.90;;;;;;5058788;28;20093;-65
2022/12/07 06:34:29;;;;;;;13.25;1.23;;;3.20;99.90;;;;;;5109073;27;20051;-63
2022/12/07 06:36:54;;;;;;;15.45;0.90;;;3.90;99.90;;;;;;5077002;28;20429;-63
2022/12/07 06:39:26;;;;;;;12.75;0.90;;;3.80;99.90;;;;;;5076640;28;20054;-63
2022/12/07 06:41:51;;;;;;;9.98;0.75;;;3.60;99.90;;;;;;5077163;28;20520;-64
2022/12/07 06:44:18;;;;;;;10.13;0.60;;;3.70;99.90;;;;;;5109171;27;20042;-64
2022/12/07 06:46:44;;;;;;;13.43;1.00;;;2.40;99.90;;;;;;5072474;28;20176;-64
2022/12/07 06:49:09;;;;;;;15.57;0.90;;;2.50;99.90;;;;;;5078652;28;20384;-64
2022/12/07 06:51:36;;;;;;;14.65;0.80;;;3.60;99.90;;;;;;5076686;28;20763;-64
2022/12/07 06:54:05;;;;;;;13.70;0.52;;;3.10;99.90;;;;;;5075653;28;20044;-63
2022/12/07 06:56:30;;;;;;;20.85;0.85;;;2.40;99.90;;;;;;5077953;28;20048;-64
2022/12/07 06:58:56;;;;;;;12.25;0.52;;;1.90;99.90;;;;;;5078579;28;20109;-64
2022/12/07 07:01:22;;;;;;;10.18;0.70;;;1.80;99.90;;;;;;5057542;28;20090;-63
2022/12/07 07:03:47;;;;;;;16.70;1.60;;;1.80;99.90;;;;;;5079631;28;20044;-63
2022/12/07 07:06:14;;;;;;;14.32;0.77;;;1.90;99.90;;;;;;5060862;28;20719;-65
2022/12/07 07:08:40;;;;;;;18.02;1.23;;;1.90;99.90;;;;;;5078917;28;20043;-65
2022/12/07 07:11:07;;;;;;;11.48;0.90;;;2.10;99.90;;;;;;5058557;28;20047;-66
2022/12/07 07:13:33;;;;;;;14.55;1.50;;;3.40;99.90;;;;;;5079078;28;20145;-66
2022/12/07 07:15:59;;;;;;;14.80;1.27;;;1.80;99.90;;;;;;5077622;28;20110;-66
2022/12/07 07:18:25;;;;;;;11.73;0.98;;;1.80;99.90;;;;;;5103079;27;20180;-66
2022/12/07 07:20:51;;;;;;;23.25;1.90;;;3.10;99.90;;;;;;5085814;28;20039;-66
2022/12/07 07:23:18;;;;;;;12.35;1.05;;;1.60;99.90;;;;;;5059823;28;21728;-64
2022/12/07 07:25:44;;;;;;;19.08;1.67;;;2.70;99.90;;;;;;5075392;28;20040;-65
2022/12/07 07:28:10;;;;;;;14.25;0.95;;;2.90;99.90;;;;;;5058912;28;20132;-63
2022/12/07 07:30:36;;;;;;;17.90;1.15;;;2.30;99.90;;;;;;5076868;28;20090;-63
2022/12/07 07:33:04;;;;;;;15.18;1.70;;;1.70;99.90;;;;;;5072821;28;20678;-64
2022/12/07 07:35:31;;;;;;;15.65;1.38;;;2.50;99.90;;;;;;5107138;27;20043;-63
2022/12/07 07:37:57;;;;;;;16.17;1.23;;;0.90;99.90;;;;;;5076725;28;20043;-64
2022/12/07 07:40:23;;;;;;;15.55;1.52;;;2.80;99.90;;;;;;5089389;28;20113;-65
2022/12/07 07:42:53;;;;;;;16.58;2.50;;;2.80;99.90;;;;;;5109009;27;20044;-65
2022/12/07 07:45:21;;;;;;;19.17;1.58;;;0.90;99.90;;;;;;5076085;28;20431;-65
2022/12/07 07:47:47;;;;;;;19.13;3.17;;;1.00;99.90;;;;;;5077536;28;20048;-65
2022/12/07 07:50:13;;;;;;;16.85;1.02;;;1.00;99.90;;;;;;5075077;28;20043;-64
2022/12/07 07:52:39;;;;;;;21.60;1.23;;;1.30;99.90;;;;;;5076983;28;20077;-67
2022/12/07 07:55:08;;;;;;;15.77;0.85;;;3.10;99.90;;;;;;5077474;28;20036;-63
2022/12/07 07:57:34;;;;;;;11.75;1.30;;;2.30;99.90;;;;;;5058382;28;20121;-64
2022/12/07 08:00:01;;;;;;;15.25;1.75;;;2.50;99.90;;;;;;5075649;28;20047;-64
2022/12/07 08:02:29;;;;;;;13.15;1.20;;;3.30;99.90;;;;;;5075935;28;20190;-64
2022/12/07 08:04:58;;;;;;;15.85;2.10;;;3.50;99.90;;;;;;5074237;28;20054;-63
2022/12/07 08:07:23;;;;;;;18.83;1.10;;;3.00;99.90;;;;;;5076104;28;20040;-64
2022/12/07 08:09:49;;;;;;;14.35;1.55;;;3.20;99.90;;;;;;5075147;28;20097;-65
2022/12/07 08:12:15;;;;;;;17.08;1.17;;;2.60;99.90;;;;;;5058784;28;20593;-64
2022/12/07 08:14:43;;;;;;;13.10;1.13;;;3.40;99.90;;;;;;5077320;28;20036;-63
2022/12/07 08:17:09;;;;;;;15.02;1.60;;;2.00;99.90;;;;;;5076183;28;20063;-63
2022/12/07 08:19:35;;;;;;;12.60;1.00;;;2.40;99.90;;;;;;5058080;28;20082;-64
2022/12/07 08:22:00;;;;;;;12.43;1.25;;;3.20;99.90;;;;;;5076027;28;20095;-63
2022/12/07 08:24:26;;;;;;;13.60;1.13;;;3.70;99.90;;;;;;5078157;28;20032;-64
2022/12/07 08:26:52;;;;;;;15.32;1.55;;;3.70;99.90;;;;;;5093618;28;20463;-63
2022/12/07 08:29:18;;;;;;;16.55;1.30;;;2.80;99.90;;;;;;5094342;28;20091;-65
2022/12/07 08:31:44;;;;;;;15.07;1.00;;;2.70;99.90;;;;;;5077222;28;20577;-66
2022/12/07 08:34:13;;;;;;;12.43;1.00;;;3.50;99.90;;;;;;5063763;28;20169;-64
2022/12/07 08:36:39;;;;;;;14.88;1.10;;;2.80;99.90;;;;;;5081636;28;20039;-63
2022/12/07 08:39:05;;;;;;;12.20;0.90;;;2.80;99.90;;;;;;5086673;28;20105;-63
2022/12/07 08:41:32;;;;;;;12.93;0.93;;;3.20;99.90;;;;;;5086860;28;20043;-62
2022/12/07 08:43:58;;;;;;;15.68;1.02;;;4.20;99.90;;;;;;5076860;28;20391;-64
2022/12/07 08:46:33;;;;;;;15.90;1.38;;;2.90;99.90;;;;;;5076672;28;20044;-63
2022/12/07 08:49:23;;;;;;;6.15;0.30;;;3.10;99.90;;;;;;5051212;28;20139;-64
2022/12/07 08:51:49;;;;;;;5.65;0.40;;;3.50;99.90;;;;;;5075731;28;20553;-65
2022/12/07 08:54:17;;;;;;;6.35;0.30;;;3.50;99.90;;;;;;5076291;28;20092;-66
2022/12/07 08:56:43;;;;;;;7.68;0.40;;;3.70;99.90;;;;;;5109969;28;20090;-64
2022/12/07 08:59:10;;;;;;;6.55;0.30;;;3.80;99.90;;;;;;5057869;28;20096;-62
2022/12/07 09:01:36;;;;;;;6.40;0.43;;;4.10;99.90;;;;;;5086362;28;20155;-64
2022/12/07 09:04:02;;;;;;;4.60;0.30;;;3.70;99.90;;;;;;5081839;28;20122;-63
2022/12/07 09:06:28;;;;;;;9.80;0.40;;;4.20;99.90;;;;;;5063041;28;20264;-64
2022/12/07 09:08:59;;;;;;;4.18;0.30;;;4.40;99.90;;;;;;5092528;28;20036;-63
2022/12/07 09:11:24;;;;;;;6.25;0.30;;;4.40;99.90;;;;;;5081655;28;20300;-65
2022/12/07 09:13:50;;;;;;;8.77;0.40;;;4.00;99.90;;;;;;5065361;28;20035;-65
2022/12/07 09:16:16;;;;;;;9.88;0.40;;;4.20;99.90;;;;;;5082888;28;20142;-65
2022/12/07 09:18:42;;;;;;;12.63;0.70;;;4.30;99.90;;;;;;5083754;28;20132;-65
2022/12/07 09:21:07;;;;;;;8.05;0.68;;;4.70;99.90;;;;;;5082157;28;20056;-64
2022/12/07 09:23:34;;;;;;;7.93;0.30;;;4.60;99.90;;;;;;5065045;28;20068;-65
2022/12/07 09:26:07;;;;;;;8.07;0.65;;;4.80;99.90;;;;;;5082035;28;20085;-63
2022/12/07 09:28:33;;;;;;;7.55;0.50;;;5.10;99.90;;;;;;5081226;28;20696;-63
2022/12/07 09:30:58;;;;;;;6.03;0.57;;;5.10;99.90;;;;;;5082818;28;20055;-64
2022/12/07 09:33:24;;;;;;;8.10;0.40;;;5.10;99.90;;;;;;5080926;28;20340;-64
2022/12/07 09:35:51;;;;;;;9.70;0.57;;;5.40;99.90;;;;;;5089357;28;20110;-63
2022/12/07 09:38:19;;;;;;;11.82;0.73;;;5.20;99.90;;;;;;5109007;27;20516;-65
2022/12/07 09:40:45;;;;;;;8.88;0.43;;;5.00;99.90;;;;;;5059475;28;20091;-64
2022/12/07 09:43:23;;;;;;;10.93;0.55;;;4.80;99.90;;;;;;5086619;28;20051;-65
2022/12/07 09:45:53;;;;;;;9.48;0.60;;;5.00;99.90;;;;;;5080701;28;20054;-64
2022/12/07 09:48:36;;;;;;;11.25;1.00;;;4.50;99.90;;;;;;5081873;28;20048;-63
2022/12/07 09:51:12;;;;;;;10.88;1.00;;;4.90;99.90;;;;;;5083695;28;20520;-63
2022/12/07 09:53:38;;;;;;;8.35;0.63;;;4.80;99.90;;;;;;5079194;28;20222;-64
2022/12/07 09:56:05;;;;;;;10.70;0.40;;;4.80;99.90;;;;;;5078324;28;20044;-64
2022/12/07 09:58:32;;;;;;;12.85;0.70;;;4.80;99.90;;;;;;5080985;28;20066;-64
2022/12/07 10:01:07;;;;;;;11.95;0.47;;;4.80;99.90;;;;;;5079807;28;20548;-64
2022/12/07 10:03:40;;;;;;;9.90;0.47;;;5.10;99.90;;;;;;5082047;28;20525;-65
2022/12/07 10:06:07;;;;;;;7.75;0.50;;;5.00;99.90;;;;;;5079641;28;20073;-64
2022/12/07 10:08:33;;;;;;;5.43;0.30;;;5.40;99.90;;;;;;5078453;28;20040;-65
2022/12/07 10:11:03;;;;;;;10.73;0.38;;;5.30;99.90;;;;;;5060612;28;20039;-65
2022/12/07 10:13:40;;;;;;;8.90;0.40;;;5.30;99.90;;;;;;5077903;28;20040;-65
2022/12/07 10:16:27;;;;;;;10.68;0.40;;;5.50;99.90;;;;;;5077679;28;20052;-65
2022/12/07 10:18:54;;;;;;;8.80;0.75;;;5.50;99.90;;;;;;5079266;28;20727;-65
2022/12/07 10:21:26;;;;;;;7.20;0.55;;;5.50;99.90;;;;;;5080572;28;20489;-64
2022/12/07 10:24:03;;;;;;;10.63;0.65;;;5.40;99.90;;;;;;5060438;28;20056;-64
2022/12/07 10:26:36;;;;;;;7.88;0.63;;;5.30;99.90;;;;;;5078613;28;20051;-65
2022/12/07 10:29:27;;;;;;;3.95;0.50;;;5.40;99.90;;;;;;5076681;28;20055;-65
2022/12/07 10:32:00;;;;;;;4.15;0.22;;;5.40;99.90;;;;;;5079041;28;20428;-65
2022/12/07 10:34:37;;;;;;;4.65;0.45;;;5.30;99.90;;;;;;5061704;28;20176;-64
2022/12/07 10:39:52;;;;;;;6.13;0.30;;;5.50;99.90;;;;;;5108934;27;20047;-63
2022/12/07 10:42:22;;;;;;;6.03;0.50;;;5.80;99.90;;;;;;5110886;27;20059;-65
2022/12/07 10:44:49;;;;;;;4.07;0.30;;;5.70;99.90;;;;;;5078208;28;20032;-63
2022/12/07 10:47:38;;;;;;;5.68;0.30;;;5.60;99.90;;;;;;5087613;28;20051;-64
2022/12/07 10:50:22;;;;;;;8.35;0.38;;;5.90;99.90;;;;;;5062354;28;20139;-64
2022/12/07 10:53:24;;;;;;;8.02;0.50;;;5.70;99.90;;;;;;5079217;28;20571;-65
2022/12/07 10:56:24;;;;;;;4.68;0.30;;;5.90;99.90;;;;;;5076594;27;20517;-65
2022/12/07 10:58:53;;;;;;;9.52;0.32;;;6.10;99.90;;;;;;5076801;28;20446;-65
2022/12/07 11:01:37;;;;;;;5.95;0.30;;;6.30;99.90;;;;;;5060929;28;20401;-64
2022/12/07 11:04:09;;;;;;;5.15;0.25;;;6.30;99.90;;;;;;5078844;28;20075;-64
2022/12/07 11:06:53;;;;;;;6.75;0.40;;;6.70;99.90;;;;;;5079615;28;20044;-64
2022/12/07 11:09:22;;;;;;;5.60;0.30;;;7.50;99.90;;;;;;5077827;28;20086;-64
2022/12/07 11:12:06;;;;;;;4.65;0.30;;;7.80;99.90;;;;;;5077544;28;20067;-64
2022/12/07 11:14:51;;;;;;;7.82;0.50;;;7.70;99.90;;;;;;5090604;28;20472;-64
2022/12/07 11:17:45;;;;;;;5.25;0.40;;;7.70;99.90;;;;;;5107860;27;20039;-64
2022/12/07 11:20:41;;;;;;;4.00;0.30;;;7.90;99.90;;;;;;5079381;28;20051;-65
2022/12/07 11:23:09;;;;;;;12.38;0.52;;;7.60;99.90;;;;;;5078315;28;20047;-65
2022/12/07 11:26:07;;;;;;;7.28;0.50;;;7.40;99.90;;;;;;5077229;28;20341;-65
2022/12/07 11:28:49;;;;;;;7.22;0.40;;;7.30;99.90;;;;;;5060446;28;20051;-65
2022/12/07 11:31:29;;;;;;;6.22;0.30;;;7.30;99.90;;;;;;5076149;28;20418;-64
2022/12/07 11:34:27;;;;;;;5.05;0.20;;;7.30;99.90;;;;;;5106536;27;20051;-64
2022/12/07 11:36:56;;;;;;;4.57;0.30;;;7.40;99.90;;;;;;5078176;28;20520;-64
2022/12/07 11:39:28;;;;;;;5.63;0.30;;;8.00;99.90;;;;;;5080298;28;20039;-64
2022/12/07 11:42:06;;;;;;;4.65;0.30;;;8.30;99.90;;;;;;5077719;28;20040;-64
2022/12/07 11:44:32;;;;;;;4.47;0.50;;;8.70;99.90;;;;;;5109448;27;20820;-65
2022/12/07 11:47:38;;;;;;;5.65;0.30;;;8.60;99.90;;;;;;5058662;28;20058;-64
2022/12/07 11:50:22;;;;;;;5.57;0.40;;;8.20;99.90;;;;;;5048168;28;20060;-66
2022/12/07 11:52:50;;;;;;;;;;;7.80;99.90;;;;;;5079392;28;20105;-65
2022/12/07 11:55:20;;;;;;;6.35;0.50;;;7.40;99.90;;;;;;5090853;28;20499;-64
2022/12/07 11:57:51;;;;;;;5.25;0.30;;;7.00;99.90;;;;;;5060135;28;20047;-65
2022/12/07 12:00:17;;;;;;;9.27;0.30;;;6.70;99.90;;;;;;5078505;28;20043;-64
2022/12/07 12:03:04;;;;;;;3.88;0.20;;;6.40;99.90;;;;;;5107532;27;20031;-65
2022/12/07 12:05:30;;;;;;;4.53;0.20;;;6.40;99.90;;;;;;5092003;28;20282;-67
2022/12/07 12:08:13;;;;;;;7.25;0.30;;;6.30;99.90;;;;;;5077949;28;20040;-65
2022/12/07 12:11:03;;;;;;;5.70;0.30;;;6.10;99.90;;;;;;5057279;28;20074;-66
2022/12/07 12:13:49;;;;;;;9.30;0.30;;;6.10;99.90;;;;;;5076471;28;20048;-65
2022/12/07 12:16:46;;;;;;;4.45;0.30;;;6.00;99.90;;;;;;5060226;28;20134;-65
2022/12/07 12:19:27;;;;;;;5.95;0.30;;;6.00;99.90;;;;;;5080564;27;20048;-66
2022/12/07 12:22:19;;;;;;;6.00;0.30;;;6.10;99.90;;;;;;5111178;27;20410;-65
2022/12/07 12:24:50;;;;;;;4.00;0.25;;;6.10;99.90;;;;;;5076024;28;20043;-66
2022/12/07 12:27:35;;;;;;;9.70;0.30;;;6.60;99.90;;;;;;5075196;28;20036;-66
2022/12/07 12:30:04;;;;;;;6.72;0.45;;;7.10;99.90;;;;;;5091338;28;20048;-66
2022/12/07 12:32:40;;;;;;;5.15;0.30;;;7.30;99.90;;;;;;5077350;28;20076;-64
2022/12/07 12:35:30;;;;;;;7.18;0.30;;;7.50;99.90;;;;;;5106130;27;20036;-66
2022/12/07 12:38:25;;;;;;;3.47;0.30;;;7.70;99.90;;;;;;5092186;28;20339;-66
2022/12/07 12:40:50;;;;;;;4.68;0.35;;;7.80;99.90;;;;;;5076014;28;20050;-67
2022/12/07 12:43:43;;;;;;;4.35;0.30;;;7.80;99.90;;;;;;5085179;28;20052;-65
2022/12/07 12:46:33;;;;;;;6.65;0.30;;;7.90;99.90;;;;;;5094239;28;20044;-64
2022/12/07 12:49:17;;;;;;;2.88;0.20;;;8.00;99.90;;;;;;5077147;28;20123;-64
2022/12/07 12:52:03;;;;;;;2.78;0.20;;;7.80;99.90;;;;;;5056702;28;20047;-65
2022/12/07 12:54:51;;;;;;;5.85;0.20;;;7.80;99.90;;;;;;5110457;28;20046;-65
2022/12/07 12:57:30;;;;;;;7.90;0.40;;;7.80;99.90;;;;;;5051130;28;20344;-66
2022/12/07 13:00:03;;;;;;;5.28;0.40;;;7.90;99.90;;;;;;5060188;28;20414;-64
2022/12/07 13:02:33;;;;;;;6.63;0.30;;;8.20;99.90;;;;;;5078118;28;20036;-64
2022/12/07 13:05:09;;;;;;;5.65;0.60;;;8.30;99.90;;;;;;5076693;28;20088;-65
2022/12/07 13:07:47;;;;;;;7.80;0.40;;;8.40;99.90;;;;;;5075692;28;20126;-65
2022/12/07 13:10:43;;;;;;;6.72;0.35;;;8.30;99.90;;;;;;5077892;28;20538;-66
2022/12/07 13:13:14;;;;;;;5.47;0.30;;;8.00;99.90;;;;;;5053793;28;20094;-65
2022/12/07 13:16:15;;;;;;;7.05;0.55;;;8.00;99.90;;;;;;5076200;28;20040;-65
2022/12/07 13:18:41;;;;;;;8.35;0.40;;;8.00;99.90;;;;;;5076135;28;20118;-65